Lop Buri, Thailand

4:13 PM ICT on July 27, 2016 (GMT +0700)
Bangkok International | | Change Station

Elev 13 ft 13.92 °N, 100.61 °E | Updated 13 minutes ago

Scattered Clouds
Scattered Clouds
91 °F
Feels Like 102 °F
N
13
Wind Variable Wind from West

Today
High -- | Low -- °F
--% Chance of Precip.
Yesterday
High -- | Low -- °F
Precip. -- in
Pressure 29.65 in
Visibility 6.2 miles
Clouds Few 2000 ft
Scattered Clouds 3500 ft
Heat Index 102 °F
Dew Point 75 °F
Humidity 59%
Rainfall 0.00 in
Snow Depth Not available.
5:59 AM 6:48 PM
Last Quarter, 45% visible
METAR VTBD 270900Z 27011KT 250V310 9999 VCSH FEW020CB SCT035 33/24 Q1004 NOSIG
Pressure 29.65 in
Visibility 6.2 miles
Clouds Few 2000 ft
Scattered Clouds 3500 ft
Heat Index 102 °F
Dew Point 75 °F
Humidity 59%
Rainfall 0.00 in
Snow Depth Not available.
5:59 AM 6:48 PM
Last Quarter, 45% visible
METAR VTBD 270900Z 27011KT 250V310 9999 VCSH FEW020CB SCT035 33/24 Q1004 NOSIG

10-Day Weather Forecast

No radar image for this location.
×

Almanac

Astronomy

Jul. 27, 2016 Rise Set
Actual Time
Civil Twilight
Nautical Twilight
Astronomical Twilight
Moon
Length of Visible Light
Length of Day
Tomorrow will be .
, % of the Moon is Illuminated

Today's Extremes

Country Highs Country Lows

Community

WunderPhotos

Upload Photos

1,927,818 photos uploaded!

WunderBlog® & News

Nearby

Air Quality

  Air Quality AQ Index Pollutant
Not available.

Snow Depth

Station Depth Elevation

Earthquake Activity

City Distance Mag. Time & Date
Minimum magnitude displayed is 2.5.

Coastal Water Temperatures

Place Temperature

Stations

Nearby Weather Stations

Station Location Temp. Windchill Dew Point Humidity Wind Precip. Elev Updated Type